Terminal Aerodrome Forecast
Issued by NWS

Home | Current Version | Previous Version | Text Only | Print | Product List | Glossary On
Versions: 1 2 3 4 5 6 7 8 9 10 11 12 13 14 15 16 17
170
FTUS43 KDTX 272003 AAA
TAFDET
TAF AMD
KDET 272003Z 2720/2818 17008KT P6SM SCT040 BKN200
     FM272300 16006KT P6SM SCT060 BKN150
     FM280900 17004KT 6SM BR BKN250
     FM281400 20010KT P6SM SCT050 BKN150=

USA.gov is the U.S. government's official web portal to all federal, state and local government web resources and services.